Time;durP1;ratioP1;P1;durP2;ratioP2;P2;SDS_P1;SDS_P2;PMS_P1;PMS_P2;Temp;Humidity;BMP_temperature;BMP_pressure;BME280_temperature;BME280_humidity;BME280_pressure;Samples;Min_cycle;Max_cycle;Signal;HPM_P1;HPM_P2
2021/07/17 00:00:00;;;;;;;6.88;4.03;;;15.80;99.90;;;15.97;75.43;102194.53;4170611;28;20037;-77
2021/07/17 00:02:02;;;;;;;7.03;3.97;;;15.90;99.90;;;15.83;75.88;102190.56;4170557;28;20041;-77
2021/07/17 00:04:04;;;;;;;7.72;4.38;;;15.90;99.90;;;15.80;75.58;102184.75;4170388;28;20065;-77
2021/07/17 00:06:05;;;;;;;6.78;4.13;;;15.90;99.90;;;15.69;76.71;102192.97;4169295;28;20108;-77
2021/07/17 00:08:06;;;;;;;5.95;3.47;;;15.80;99.90;;;15.69;76.72;102187.63;4152834;28;20034;-77
2021/07/17 00:10:20;;;;;;;6.45;3.70;;;15.80;99.90;;;15.65;77.70;102187.09;4164089;28;20048;-77
2021/07/17 00:12:21;;;;;;;8.82;4.20;;;15.70;99.90;;;15.61;77.77;102190.25;4168701;28;20052;-77
2021/07/17 00:14:22;;;;;;;6.75;3.60;;;15.70;99.90;;;15.58;77.80;102179.91;4169233;28;20053;-77
2021/07/17 00:16:26;;;;;;;6.88;3.67;;;15.70;99.90;;;15.53;78.45;102171.56;4170300;28;20389;-77
2021/07/17 00:18:27;;;;;;;9.45;3.53;;;15.60;99.90;;;15.59;78.38;102176.28;4169186;28;20037;-77
2021/07/17 00:20:28;;;;;;;6.63;3.60;;;15.60;99.90;;;15.46;78.65;102174.81;4169038;28;20022;-77
2021/07/17 00:22:29;;;;;;;10.07;4.00;;;15.60;99.90;;;15.46;78.60;102177.47;4169127;28;20033;-77
2021/07/17 00:24:30;;;;;;;8.75;4.78;;;15.50;99.90;;;15.45;78.18;102183.75;4170147;28;20547;-77
2021/07/17 00:26:31;;;;;;;6.93;3.60;;;15.50;99.90;;;15.44;78.94;102168.78;4168721;28;20035;-77
2021/07/17 00:28:33;;;;;;;4.30;3.30;;;15.50;99.90;;;15.52;78.58;102177.84;4170003;28;20033;-77
2021/07/17 00:30:34;;;;;;;9.48;4.18;;;15.50;99.90;;;15.44;78.95;102174.09;4168999;28;20084;-77
2021/07/17 00:32:36;;;;;;;10.57;3.92;;;15.50;99.90;;;15.46;79.16;102174.81;4168839;28;20508;-77
2021/07/17 00:34:36;;;;;;;9.02;3.67;;;15.50;99.90;;;15.36;79.79;102171.38;4168848;28;20029;-77
2021/07/17 00:36:38;;;;;;;7.97;3.83;;;15.40;99.90;;;15.25;79.71;102174.25;4168759;28;20481;-77
2021/07/17 00:38:39;;;;;;;8.50;4.15;;;15.40;99.90;;;15.18;80.32;102178.50;4168928;28;20025;-77
2021/07/17 00:40:40;;;;;;;7.03;4.55;;;15.30;99.90;;;15.37;79.13;102174.88;4168428;28;20111;-78
2021/07/17 00:42:43;;;;;;;7.22;3.80;;;15.40;99.90;;;15.39;78.48;102167.56;4169942;28;20033;-77
2021/07/17 00:44:44;;;;;;;4.82;3.83;;;15.30;99.90;;;15.28;79.38;102171.31;4168682;28;20042;-77
2021/07/17 00:46:46;;;;;;;8.10;3.90;;;15.30;99.90;;;15.31;79.34;102173.66;4169899;28;20053;-77
2021/07/17 00:48:47;;;;;;;7.95;4.05;;;15.30;99.90;;;15.32;79.20;102158.56;4169239;28;20047;-77
2021/07/17 00:50:48;;;;;;;6.32;4.18;;;15.40;99.90;;;15.32;79.86;102169.19;4169819;28;20084;-77
2021/07/17 00:52:49;;;;;;;6.57;3.58;;;15.30;99.90;;;15.15;80.42;102160.19;4168400;28;20029;-77
2021/07/17 00:54:51;;;;;;;9.25;3.97;;;15.30;99.90;;;15.15;79.81;102154.88;4168926;28;20041;-77
2021/07/17 00:56:53;;;;;;;10.10;4.32;;;15.30;99.90;;;15.21;79.00;102162.25;4168271;28;20412;-77
2021/07/17 00:58:58;;;;;;;10.60;4.40;;;15.30;99.90;;;15.13;79.86;102164.84;4168557;28;20041;-77
2021/07/17 01:01:00;;;;;;;7.07;3.97;;;15.20;99.90;;;14.91;80.07;102158.13;4168443;28;20030;-77
2021/07/17 01:03:07;;;;;;;7.28;4.05;;;15.10;99.90;;;14.85;80.73;102160.53;4168534;28;20571;-77
2021/07/17 01:05:08;;;;;;;8.50;4.20;;;15.00;99.90;;;14.85;80.89;102160.53;4168490;28;20076;-77
2021/07/17 01:07:10;;;;;;;7.75;4.22;;;14.90;99.90;;;14.82;81.28;102160.84;4151849;28;20034;-77
2021/07/17 01:09:11;;;;;;;8.50;3.97;;;14.90;99.90;;;14.63;81.81;102148.53;4151586;28;20045;-77
2021/07/17 01:11:13;;;;;;;6.80;4.28;;;14.90;99.90;;;14.55;81.93;102158.19;4168065;28;20021;-77
2021/07/17 01:13:15;;;;;;;6.75;4.35;;;14.80;99.90;;;14.57;82.25;102167.72;4169470;28;20033;-77
2021/07/17 01:15:17;;;;;;;6.38;3.70;;;14.70;99.90;;;14.66;82.18;102163.31;4151761;28;20516;-77
2021/07/17 01:17:18;;;;;;;7.18;4.03;;;14.70;99.90;;;14.74;81.74;102164.25;4184535;28;20107;-77
2021/07/17 01:19:23;;;;;;;5.15;3.70;;;14.70;99.90;;;14.76;81.95;102172.06;4168304;28;20037;-77
2021/07/17 01:21:26;;;;;;;6.18;3.42;;;14.80;99.90;;;14.72;82.12;102176.00;4168267;28;20096;-77
2021/07/17 01:23:27;;;;;;;6.55;3.65;;;14.70;99.90;;;14.62;82.81;102172.56;4168021;28;20040;-77
2021/07/17 01:25:33;;;;;;;7.47;3.92;;;14.70;99.90;;;14.67;82.04;102171.13;4167939;28;20038;-77
2021/07/17 01:27:36;;;;;;;6.88;3.63;;;14.70;99.90;;;14.64;82.06;102163.47;4168274;28;20037;-77
2021/07/17 01:29:37;;;;;;;6.10;3.88;;;14.70;99.90;;;14.61;82.51;102163.75;4168209;28;20080;-77
2021/07/17 01:31:38;;;;;;;12.45;4.25;;;14.70;99.90;;;14.58;82.00;102172.00;4167804;28;20026;-77
2021/07/17 01:33:40;;;;;;;8.40;4.35;;;14.70;99.90;;;14.63;81.97;102175.09;4169263;28;20079;-77
2021/07/17 01:35:41;;;;;;;5.88;3.72;;;14.70;99.90;;;14.62;81.79;102169.91;4169166;28;20112;-77
2021/07/17 01:37:43;;;;;;;7.70;3.97;;;14.70;99.90;;;14.54;82.27;102168.00;4167883;28;20057;-77
2021/07/17 01:39:43;;;;;;;5.18;3.90;;;14.60;99.90;;;14.50;82.21;102168.44;4167787;28;20147;-77
2021/07/17 01:41:47;;;;;;;10.02;4.13;;;14.60;99.90;;;14.61;82.73;102178.84;4168575;28;20049;-77
2021/07/17 01:43:49;;;;;;;7.57;3.95;;;14.60;99.90;;;14.43;83.25;102164.66;4167898;28;20401;-77
2021/07/17 01:45:50;;;;;;;8.00;3.20;;;14.60;99.90;;;14.54;83.00;102164.50;4168970;28;20029;-77
2021/07/17 01:47:52;;;;;;;6.50;3.80;;;14.60;99.90;;;14.52;83.60;102169.09;4168816;28;20093;-77
2021/07/17 01:49:53;;;;;;;10.75;4.57;;;14.50;99.90;;;14.33;83.82;102162.06;4167769;28;20026;-77
2021/07/17 01:51:53;;;;;;;8.05;3.50;;;14.50;99.90;;;14.27;84.30;102167.94;4167706;28;20029;-77
2021/07/17 01:53:56;;;;;;;7.15;4.10;;;14.40;99.90;;;14.18;84.46;102177.59;4167733;28;20014;-77
2021/07/17 01:55:57;;;;;;;7.60;4.05;;;14.40;99.90;;;14.10;84.84;102174.81;4167243;28;20041;-77
2021/07/17 01:57:59;;;;;;;7.38;4.05;;;14.30;99.90;;;14.09;85.28;102175.81;4167799;28;20549;-76
2021/07/17 02:00:00;;;;;;;9.77;4.13;;;14.30;99.90;;;14.09;85.43;102169.66;4167447;28;20033;-77
2021/07/17 02:02:01;;;;;;;9.73;4.45;;;14.20;99.90;;;14.04;85.07;102167.44;4167479;28;20029;-77
2021/07/17 02:04:02;;;;;;;5.50;4.22;;;14.20;99.90;;;14.02;85.49;102164.09;4167315;28;20055;-77
2021/07/17 02:06:04;;;;;;;7.32;3.80;;;14.10;99.90;;;14.05;85.53;102165.63;4167519;28;20548;-77
2021/07/17 02:08:05;;;;;;;6.85;3.33;;;14.10;99.90;;;14.04;86.08;102166.59;4151001;28;20125;-77
2021/07/17 02:10:10;;;;;;;7.10;3.88;;;14.10;99.90;;;14.02;86.29;102171.22;4193927;28;20028;-77
2021/07/17 02:12:11;;;;;;;4.93;3.95;;;14.10;99.90;;;13.80;86.70;102169.72;4168057;28;20033;-77
2021/07/17 02:14:12;;;;;;;7.55;3.95;;;14.00;99.90;;;13.77;86.72;102172.66;4167359;28;20021;-77
2021/07/17 02:16:13;;;;;;;7.32;3.42;;;14.00;99.90;;;13.67;87.06;102172.69;4150837;28;20025;-77
2021/07/17 02:18:19;;;;;;;6.63;3.78;;;13.90;99.90;;;13.69;86.79;102177.81;4167279;28;20025;-77
2021/07/17 02:20:21;;;;;;;9.10;4.00;;;13.90;99.90;;;13.72;87.09;102175.75;4167250;28;20170;-77
2021/07/17 02:22:22;;;;;;;8.73;4.68;;;13.80;99.90;;;13.80;86.97;102170.56;4167361;28;20040;-77
2021/07/17 02:24:23;;;;;;;7.45;3.67;;;13.90;99.90;;;13.79;86.96;102178.66;4168396;28;20396;-77
2021/07/17 02:26:24;;;;;;;7.13;3.63;;;13.90;99.90;;;13.70;87.33;102171.56;4166973;28;20026;-76
2021/07/17 02:28:25;;;;;;;10.25;4.22;;;13.80;99.90;;;13.73;87.24;102171.28;4168334;28;20040;-77
2021/07/17 02:30:27;;;;;;;10.57;4.18;;;13.80;99.90;;;13.70;87.15;102166.25;4167328;28;20065;-77
2021/07/17 02:32:28;;;;;;;9.43;4.13;;;13.80;99.90;;;13.70;87.59;102164.44;4167386;28;20556;-77
2021/07/17 02:34:29;;;;;;;7.28;4.00;;;13.80;99.90;;;13.77;86.81;102172.66;4168524;28;20083;-77
2021/07/17 02:36:30;;;;;;;7.47;4.00;;;13.80;99.90;;;13.85;86.83;102162.19;4167133;28;20080;-77
2021/07/17 02:38:32;;;;;;;7.95;4.30;;;13.90;99.90;;;13.95;86.18;102164.81;4167150;28;20057;-77
2021/07/17 02:40:33;;;;;;;11.77;4.53;;;13.90;99.90;;;13.95;85.86;102162.97;4167934;28;20779;-77
2021/07/17 02:42:35;;;;;;;5.20;3.75;;;13.90;99.90;;;13.85;86.83;102155.06;4167072;28;20101;-77
2021/07/17 02:44:36;;;;;;;8.45;3.80;;;13.90;99.90;;;13.74;87.37;102151.72;4167089;28;20092;-77
2021/07/17 02:46:37;;;;;;;10.73;4.15;;;13.90;99.90;;;13.89;86.41;102160.91;4168502;28;20064;-77
2021/07/17 02:48:38;;;;;;;6.55;3.60;;;13.90;99.90;;;13.78;86.97;102163.72;4167205;28;20029;-77
2021/07/17 02:50:39;;;;;;;6.00;3.63;;;13.80;99.90;;;13.61;87.71;102159.16;4168405;28;20084;-77
2021/07/17 02:52:40;;;;;;;7.68;4.03;;;13.80;99.90;;;13.61;87.87;102159.16;4167113;28;20043;-77
2021/07/17 02:54:41;;;;;;;12.48;4.00;;;13.70;99.90;;;13.63;87.00;102152.72;4153909;28;20029;-77
2021/07/17 02:56:42;;;;;;;6.90;3.60;;;13.70;99.90;;;13.65;87.30;102157.91;4168091;28;20036;-77
2021/07/17 02:58:43;;;;;;;10.98;4.03;;;13.70;99.90;;;13.67;86.58;102156.78;4167138;28;20108;-77
2021/07/17 03:00:44;;;;;;;8.10;3.85;;;13.70;99.90;;;13.70;86.91;102150.34;4150541;28;20085;-77
2021/07/17 03:02:45;;;;;;;7.20;3.53;;;13.70;99.90;;;13.74;86.95;102164.97;4167134;28;20547;-77
2021/07/17 03:04:46;;;;;;;8.55;4.60;;;13.70;99.90;;;13.75;86.30;102148.09;4168272;28;20037;-77
2021/07/17 03:06:47;;;;;;;5.97;3.67;;;13.80;99.90;;;13.65;87.20;102160.56;4168291;28;20473;-77
2021/07/17 03:08:47;;;;;;;6.82;3.65;;;13.70;99.90;;;13.61;87.53;102156.50;4166865;28;20057;-77
2021/07/17 03:10:55;;;;;;;8.05;3.50;;;13.70;99.90;;;13.71;86.95;102165.25;4199375;28;20032;-77
2021/07/17 03:12:57;;;;;;;6.60;3.53;;;13.70;99.90;;;13.68;87.46;102165.53;4169976;28;20108;-77
2021/07/17 03:14:57;;;;;;;6.10;3.92;;;13.70;99.90;;;13.68;86.67;102158.44;4171316;28;20033;-77
2021/07/17 03:16:59;;;;;;;8.13;4.15;;;13.70;99.90;;;13.62;87.18;102160.84;4170097;28;20577;-77
2021/07/17 03:19:00;;;;;;;4.65;3.50;;;13.70;99.90;;;13.83;85.78;102149.06;4153403;28;20030;-77
2021/07/17 03:21:01;;;;;;;7.82;3.75;;;13.80;99.90;;;13.69;86.03;102149.50;4170107;28;20064;-77
2021/07/17 03:23:05;;;;;;;5.38;4.22;;;13.80;99.90;;;13.67;86.84;102155.94;4171186;28;20108;-77
2021/07/17 03:25:07;;;;;;;6.47;3.53;;;13.80;99.90;;;13.65;87.58;102157.91;4169856;28;20030;-77
2021/07/17 03:27:08;;;;;;;10.63;3.70;;;13.80;99.90;;;13.59;87.32;102155.81;4169561;28;20048;-77
2021/07/17 03:29:10;;;;;;;6.82;3.90;;;13.70;99.90;;;13.77;85.64;102154.91;4169911;28;20018;-77
2021/07/17 03:31:11;;;;;;;7.07;3.63;;;13.70;99.90;;;13.65;86.20;102148.09;4171103;28;20093;-77
2021/07/17 03:33:12;;;;;;;6.35;3.10;;;13.80;99.90;;;13.66;86.85;102148.94;4171090;28;20048;-77
2021/07/17 03:35:13;;;;;;;7.35;4.07;;;13.70;99.90;;;13.61;86.76;102156.50;4170924;28;20022;-77
2021/07/17 03:37:14;;;;;;;7.63;3.80;;;13.70;99.90;;;13.66;86.53;102159.56;4171155;28;20028;-77
2021/07/17 03:39:15;;;;;;;11.38;4.28;;;13.70;99.90;;;13.71;86.62;102152.00;4170042;28;20083;-77
2021/07/17 03:41:17;;;;;;;6.63;4.13;;;13.70;99.90;;;13.74;86.27;102154.38;4152948;28;20117;-77
2021/07/17 03:43:18;;;;;;;8.27;4.20;;;13.70;99.90;;;13.68;85.75;102157.59;4169550;28;20037;-77
2021/07/17 03:45:19;;;;;;;8.43;4.30;;;13.80;99.90;;;13.54;86.92;102163.31;4170851;28;20032;-77
2021/07/17 03:47:20;;;;;;;7.93;4.43;;;13.70;99.90;;;13.71;86.19;102166.09;4169530;28;20208;-77
2021/07/17 03:49:21;;;;;;;11.07;4.45;;;13.70;99.90;;;13.74;85.66;102167.63;4169570;28;20072;-77
2021/07/17 03:51:22;;;;;;;8.48;3.75;;;13.80;99.90;;;13.72;86.04;102166.94;4169518;28;20022;-77
2021/07/17 03:53:23;;;;;;;8.85;3.80;;;13.80;99.90;;;13.64;86.36;102167.66;4153257;28;20461;-77
2021/07/17 03:55:24;;;;;;;6.85;4.20;;;13.70;99.90;;;13.60;87.26;102174.22;4162389;28;20091;-77
2021/07/17 03:57:25;;;;;;;7.22;4.25;;;13.70;99.90;;;13.62;86.17;102163.47;4170606;28;20025;-77
2021/07/17 03:59:26;;;;;;;5.22;4.07;;;13.70;99.90;;;13.56;87.35;102172.81;4169427;28;20029;-77
2021/07/17 04:01:27;;;;;;;4.07;3.45;;;13.70;99.90;;;13.60;87.11;102176.03;4169180;28;20037;-77
2021/07/17 04:03:28;;;;;;;9.90;4.15;;;13.70;99.90;;;13.57;86.87;102171.84;4169458;28;20029;-77
2021/07/17 04:05:29;;;;;;;9.20;4.18;;;13.60;99.90;;;13.64;86.97;102177.44;4170625;28;20102;-77
2021/07/17 04:07:30;;;;;;;7.10;3.40;;;13.70;99.90;;;13.52;87.66;102165.28;4169128;28;20037;-77
2021/07/17 04:09:31;;;;;;;7.72;4.45;;;13.70;99.90;;;13.53;87.79;102164.31;4185812;28;20032;-78
2021/07/17 04:11:33;;;;;;;8.02;4.22;;;13.60;99.90;;;13.52;87.56;102166.13;4169089;28;20512;-78
2021/07/17 04:13:34;;;;;;;5.40;3.83;;;13.60;99.90;;;13.41;87.14;102152.19;4169252;28;20021;-77
2021/07/17 04:15:35;;;;;;;9.45;4.32;;;13.60;99.90;;;13.49;87.74;102161.13;4169109;28;20048;-77
2021/07/17 04:17:36;;;;;;;8.05;3.90;;;13.50;99.90;;;13.49;87.06;102162.91;4169273;28;20094;-77
2021/07/17 04:19:36;;;;;;;8.95;4.80;;;13.60;99.90;;;13.50;87.70;102164.59;4169265;28;20041;-77
2021/07/17 04:21:37;;;;;;;6.97;3.70;;;13.60;99.90;;;13.55;88.18;102170.31;4168988;28;20032;-77
2021/07/17 04:23:39;;;;;;;9.85;3.65;;;13.60;99.90;;;13.68;86.85;102173.50;4170222;28;20076;-77
2021/07/17 04:25:40;;;;;;;5.82;4.15;;;13.60;99.90;;;13.65;86.95;102164.00;4170083;28;20614;-77
2021/07/17 04:27:41;;;;;;;6.45;3.80;;;13.60;99.90;;;13.68;86.32;102166.38;4169120;28;20030;-77
2021/07/17 04:29:42;;;;;;;7.45;4.43;;;13.70;99.90;;;13.61;87.09;102167.09;4169848;28;20025;-77
2021/07/17 04:31:43;;;;;;;6.78;4.38;;;13.70;99.90;;;13.74;86.41;102154.38;4168642;28;20037;-77
2021/07/17 04:33:44;;;;;;;5.93;3.97;;;13.70;99.90;;;13.69;86.70;102156.63;4169056;28;20025;-78
2021/07/17 04:35:45;;;;;;;8.77;3.72;;;13.70;99.90;;;13.82;85.14;102159.81;4169035;28;20025;-78
2021/07/17 04:37:48;;;;;;;7.80;4.15;;;13.70;99.90;;;13.60;86.30;102157.47;4170017;28;20034;-78
2021/07/17 04:39:50;;;;;;;7.30;4.07;;;13.70;99.90;;;13.48;87.57;102171.84;4169879;28;20040;-78
2021/07/17 04:41:51;;;;;;;8.85;4.50;;;13.60;99.90;;;13.51;87.36;102174.22;4168317;28;20083;-78
2021/07/17 04:43:52;;;;;;;6.25;4.30;;;13.60;99.90;;;13.42;87.62;102177.69;4168529;28;20033;-78
2021/07/17 04:45:53;;;;;;;8.32;4.13;;;13.60;99.90;;;13.47;87.86;102178.94;4169558;28;20029;-78
2021/07/17 04:47:53;;;;;;;6.93;4.25;;;13.60;99.90;;;13.43;88.17;102168.78;4169613;28;20034;-77
2021/07/17 04:49:54;;;;;;;5.88;3.70;;;13.60;99.90;;;13.41;88.24;102170.75;4168546;28;20120;-78
2021/07/17 04:51:55;;;;;;;8.43;4.25;;;13.50;99.90;;;13.47;88.36;102165.69;4169940;28;20025;-77
2021/07/17 04:53:56;;;;;;;11.60;4.63;;;13.60;99.90;;;13.41;88.52;102170.75;4168767;28;20053;-77
2021/07/17 04:55:57;;;;;;;6.53;5.15;;;13.60;99.90;;;13.41;88.78;102171.56;4169435;28;20029;-77
2021/07/17 04:57:58;;;;;;;7.68;4.70;;;13.60;99.90;;;13.51;87.90;102171.56;4169871;28;20056;-77
2021/07/17 04:59:59;;;;;;;7.95;4.47;;;13.60;99.90;;;13.53;88.01;102172.28;4169918;28;20077;-77
2021/07/17 05:02:00;;;;;;;11.95;5.43;;;13.60;99.90;;;13.60;87.31;102176.88;4168669;28;20048;-77
2021/07/17 05:04:01;;;;;;;7.30;4.15;;;13.70;99.90;;;13.54;87.75;102174.78;4168188;28;20120;-77
2021/07/17 05:06:04;;;;;;;8.32;5.25;;;13.70;99.90;;;13.67;86.15;102164.72;4168737;28;20033;-77
2021/07/17 05:08:05;;;;;;;10.85;4.68;;;13.70;99.90;;;13.78;86.14;102171.69;4169834;28;20029;-77
2021/07/17 05:10:06;;;;;;;8.10;4.32;;;13.80;99.90;;;13.77;86.56;102167.34;4169514;28;20033;-77
2021/07/17 05:12:07;;;;;;;10.05;4.97;;;13.90;99.90;;;13.72;86.74;102166.94;4169257;28;20017;-77
2021/07/17 05:14:08;;;;;;;6.93;4.05;;;13.90;99.90;;;13.78;86.35;102163.72;4168307;28;20057;-77
2021/07/17 05:16:09;;;;;;;7.78;4.20;;;14.00;99.90;;;13.93;86.32;102166.75;4169526;28;20022;-77
2021/07/17 05:18:13;;;;;;;5.30;3.58;;;14.10;99.90;;;13.66;87.54;102164.84;4169561;28;20068;-77
2021/07/17 05:20:14;;;;;;;8.77;4.45;;;14.00;99.90;;;13.87;86.51;102168.19;4168317;28;20074;-77
2021/07/17 05:22:15;;;;;;;6.20;3.97;;;14.00;99.90;;;13.81;86.60;102163.44;4168253;28;20034;-77
2021/07/17 05:24:16;;;;;;;8.43;4.78;;;14.10;99.90;;;13.89;86.88;102163.56;4169305;28;20025;-77
2021/07/17 05:26:17;;;;;;;11.20;4.95;;;14.10;99.90;;;13.88;86.95;102167.22;4167875;28;20061;-77
2021/07/17 05:28:18;;;;;;;6.38;4.30;;;14.10;99.90;;;13.90;86.55;102167.88;4169231;28;20493;-77
2021/07/17 05:30:19;;;;;;;10.32;5.15;;;14.20;99.90;;;13.86;86.70;102177.09;4167825;28;20534;-78
2021/07/17 05:32:20;;;;;;;8.40;4.18;;;14.20;99.90;;;13.97;86.62;102168.16;4168066;28;20042;-77
2021/07/17 05:34:21;;;;;;;8.63;4.95;;;14.20;99.90;;;14.06;85.90;102169.97;4168730;28;20032;-77
2021/07/17 05:36:22;;;;;;;10.77;5.93;;;14.30;99.90;;;14.03;85.90;102160.47;4167897;28;20022;-77
2021/07/17 05:38:23;;;;;;;11.02;4.93;;;14.30;99.90;;;14.06;85.52;102172.59;4167757;28;20052;-77
2021/07/17 05:40:24;;;;;;;7.68;4.47;;;14.40;99.90;;;14.06;85.88;102170.78;4167477;28;20112;-77
2021/07/17 05:42:25;;;;;;;8.65;5.00;;;14.40;99.90;;;14.11;85.57;102171.19;4167888;28;20036;-77
2021/07/17 05:44:26;;;;;;;8.38;4.57;;;14.40;99.90;;;13.94;86.37;102169.28;4167713;28;20505;-78
2021/07/17 05:46:27;;;;;;;11.25;4.90;;;14.50;99.90;;;14.11;86.43;102178.31;4167609;28;20056;-77
2021/07/17 05:48:28;;;;;;;10.52;5.45;;;14.50;99.90;;;14.18;85.72;102177.59;4168728;28;20025;-77
2021/07/17 05:50:29;;;;;;;10.35;4.65;;;14.50;99.90;;;14.16;85.51;102168.09;4168871;28;20061;-77
2021/07/17 05:52:30;;;;;;;10.10;5.10;;;14.60;99.90;;;14.23;85.65;102166.53;4167489;28;20021;-77
2021/07/17 05:54:31;;;;;;;12.68;5.10;;;14.60;99.90;;;14.31;85.23;102179.91;4168735;28;20037;-78
2021/07/17 05:56:32;;;;;;;8.65;5.07;;;14.60;99.90;;;14.28;85.09;102164.28;4168651;28;20045;-78
2021/07/17 05:58:33;;;;;;;11.45;4.55;;;14.60;99.90;;;14.43;84.88;102175.28;4168501;28;20481;-77
2021/07/17 06:00:34;;;;;;;8.52;4.90;;;14.70;99.90;;;14.32;84.67;102178.94;4167498;28;20488;-78
2021/07/17 06:02:35;;;;;;;9.45;5.55;;;14.70;99.90;;;14.29;85.01;102168.63;4150987;28;20120;-79
2021/07/17 06:04:36;;;;;;;6.25;4.43;;;14.70;99.90;;;14.52;84.55;102177.06;4168759;28;20523;-79
2021/07/17 06:06:37;;;;;;;10.38;4.93;;;14.80;99.90;;;14.61;83.72;102176.19;4171896;28;20033;-79
2021/07/17 06:08:38;;;;;;;10.13;4.70;;;14.90;99.90;;;14.58;84.23;102187.94;4190457;28;20028;-78
2021/07/17 06:10:39;;;;;;;8.65;4.43;;;15.00;99.90;;;14.65;84.43;102180.22;4171643;28;20025;-77
2021/07/17 06:12:40;;;;;;;8.85;4.35;;;15.00;99.90;;;14.68;84.22;102178.13;4150826;28;20391;-79
2021/07/17 06:14:41;;;;;;;7.65;4.38;;;15.00;99.90;;;14.67;84.53;102179.09;4167380;28;20100;-79
2021/07/17 06:16:42;;;;;;;8.10;5.00;;;15.10;99.90;;;14.78;84.05;102178.06;4168138;28;20026;-78
2021/07/17 06:18:43;;;;;;;12.00;5.07;;;15.10;99.90;;;14.59;85.08;102183.47;4167207;28;20038;-79
2021/07/17 06:20:44;;;;;;;7.07;4.97;;;15.20;99.90;;;14.66;85.38;102181.91;4151038;28;20053;-79
2021/07/17 06:22:45;;;;;;;6.63;4.35;;;15.20;99.90;;;14.75;84.89;102176.56;4167246;28;20029;-79
2021/07/17 06:24:46;;;;;;;11.05;4.85;;;15.20;99.90;;;14.78;84.97;102186.06;4168369;28;20113;-79
2021/07/17 06:26:47;;;;;;;11.48;4.60;;;15.20;99.90;;;14.72;84.41;102176.00;4166570;28;20026;-79
2021/07/17 06:28:48;;;;;;;7.53;5.10;;;15.30;99.90;;;14.61;85.04;102181.50;4168342;28;20041;-78
2021/07/17 06:30:49;;;;;;;12.80;5.03;;;15.30;99.90;;;14.72;85.85;102186.63;4167100;28;20068;-80
2021/07/17 06:32:50;;;;;;;11.27;5.15;;;15.30;99.90;;;14.62;85.47;102180.53;4167016;28;20491;-80
2021/07/17 06:34:51;;;;;;;9.73;4.07;;;15.30;99.90;;;14.85;85.03;102179.13;4166996;28;20029;-80
2021/07/17 06:36:53;;;;;;;9.30;4.90;;;15.30;99.90;;;14.90;84.48;102184.88;4168253;28;20109;-79
2021/07/17 06:38:54;;;;;;;9.85;5.45;;;15.40;99.90;;;14.85;84.36;102172.00;4167121;28;20032;-79
2021/07/17 06:40:55;;;;;;;12.25;5.88;;;15.50;99.90;;;15.01;84.08;102181.16;4169032;28;20037;-79
2021/07/17 06:42:56;;;;;;;7.15;4.43;;;15.50;99.90;;;14.93;84.35;102174.75;4169929;28;20061;-79
2021/07/17 06:44:57;;;;;;;13.88;5.70;;;15.50;99.90;;;15.04;84.42;102176.38;4177687;28;20060;-79
2021/07/17 06:46:58;;;;;;;8.50;5.13;;;15.60;99.90;;;14.95;84.67;102164.81;4169513;28;20286;-78
2021/07/17 06:48:59;;;;;;;8.13;4.53;;;15.60;99.90;;;15.13;84.14;102174.63;4170474;28;20026;-78
2021/07/17 06:50:59;;;;;;;9.23;4.70;;;15.60;99.90;;;15.20;84.32;102173.88;4171408;28;20033;-78
2021/07/17 06:53:00;;;;;;;10.63;5.30;;;15.70;99.90;;;15.15;84.70;102180.63;4169988;28;20064;-78
2021/07/17 06:55:05;;;;;;;12.27;5.60;;;15.80;99.90;;;15.16;84.71;102169.84;4170241;28;20671;-78
2021/07/17 06:57:05;;;;;;;;;;;15.80;99.90;;;15.11;83.93;102171.31;4170171;28;20026;-79
2021/07/17 06:59:06;;;;;;;7.07;4.30;;;15.80;99.90;;;15.18;84.33;102181.16;4170258;28;19909;-78
2021/07/17 07:01:07;;;;;;;12.98;4.95;;;15.80;99.90;;;15.37;84.24;102181.03;4170277;28;20099;-78
2021/07/17 07:03:08;;;;;;;9.65;5.30;;;15.90;99.90;;;15.41;83.43;102174.41;4171494;28;20056;-78
2021/07/17 07:05:11;;;;;;;8.65;4.60;;;16.00;99.90;;;15.42;83.92;102178.75;4171261;28;20038;-79
2021/07/17 07:07:12;;;;;;;8.52;4.10;;;16.00;99.90;;;15.56;82.63;102185.38;4169720;28;20032;-77
2021/07/17 07:09:13;;;;;;;9.77;5.05;;;16.00;99.90;;;15.60;83.08;102183.25;4171111;28;20026;-78
2021/07/17 07:11:14;;;;;;;10.35;4.63;;;16.10;99.90;;;15.71;82.41;102180.34;4169914;28;20080;-78
2021/07/17 07:13:18;;;;;;;10.15;4.82;;;16.20;99.90;;;15.72;82.61;102184.66;4171315;28;20029;-78
2021/07/17 07:15:19;;;;;;;9.88;4.85;;;16.20;99.90;;;15.77;82.29;102180.56;4169523;28;20025;-78
2021/07/17 07:17:20;;;;;;;10.82;5.28;;;16.30;99.90;;;15.76;82.09;102180.72;4178988;28;20075;-76
2021/07/17 07:19:21;;;;;;;11.82;5.28;;;16.40;99.90;;;15.72;81.96;102184.66;4170051;28;20021;-78
2021/07/17 07:21:22;;;;;;;10.73;4.40;;;16.40;99.90;;;15.71;81.66;102186.50;4169753;28;20029;-79
2021/07/17 07:23:23;;;;;;;9.05;5.13;;;16.40;99.90;;;15.77;81.63;102180.56;4170823;28;20052;-78
2021/07/17 07:25:24;;;;;;;9.23;4.78;;;16.40;99.90;;;15.97;81.69;102189.19;4169447;28;20056;-79
2021/07/17 07:27:25;;;;;;;8.27;4.68;;;16.50;99.90;;;16.08;82.05;102188.09;4170847;28;20527;-79
2021/07/17 07:29:27;;;;;;;13.25;5.30;;;16.50;99.90;;;16.17;82.42;102181.81;4169748;28;20039;-78
2021/07/17 07:31:28;;;;;;;7.47;4.82;;;16.70;99.90;;;16.27;81.77;102195.88;4170723;28;20481;-76
2021/07/17 07:33:29;;;;;;;7.72;4.82;;;16.70;99.90;;;16.24;81.09;102177.56;4170932;28;20034;-78
2021/07/17 07:35:30;;;;;;;13.30;5.65;;;16.80;99.90;;;16.19;81.86;102190.50;4169670;28;20025;-75
2021/07/17 07:37:31;;;;;;;9.73;5.20;;;16.90;99.90;;;16.09;80.69;102182.63;4169549;28;20132;-76
2021/07/17 07:39:32;;;;;;;8.75;5.07;;;16.90;99.90;;;16.27;80.53;102187.88;4170546;28;20508;-76
2021/07/17 07:41:33;;;;;;;10.10;5.43;;;16.90;99.90;;;16.28;80.76;102169.06;4169341;28;20505;-78
2021/07/17 07:43:34;;;;;;;9.85;4.65;;;17.00;99.90;;;16.46;79.72;102183.16;4169327;28;20065;-79
2021/07/17 07:45:35;;;;;;;8.68;4.95;;;17.10;99.90;;;16.40;79.92;102173.13;4168530;28;20060;-79
2021/07/17 07:47:36;;;;;;;10.82;5.13;;;17.10;99.90;;;16.55;78.93;102184.06;4167698;28;20104;-79
2021/07/17 07:49:37;;;;;;;11.07;5.50;;;17.20;99.90;;;16.65;79.09;102178.59;4167984;28;20038;-79
2021/07/17 07:51:38;;;;;;;9.43;5.65;;;17.30;99.90;;;16.60;78.93;102173.78;4152316;28;20092;-79
2021/07/17 07:53:39;;;;;;;11.07;4.30;;;17.30;99.90;;;16.60;79.42;102165.78;4169797;28;20432;-79
2021/07/17 07:55:40;;;;;;;9.50;4.72;;;17.40;99.90;;;16.74;78.32;102180.31;4169351;28;20026;-78
2021/07/17 07:57:40;;;;;;;17.08;5.10;;;17.40;99.90;;;16.68;79.22;102176.47;4169021;28;20033;-79
2021/07/17 07:59:42;;;;;;;7.38;4.35;;;17.50;99.90;;;16.86;78.82;102179.84;4169630;28;20080;-79
2021/07/17 08:01:42;;;;;;;7.90;4.95;;;17.60;99.90;;;16.96;77.70;102180.56;4169547;28;20064;-79
2021/07/17 08:03:43;;;;;;;10.57;4.93;;;17.60;99.90;;;16.95;78.21;102178.88;4169574;28;20042;-79
2021/07/17 08:05:44;;;;;;;10.57;5.10;;;17.70;99.90;;;17.18;78.12;102184.41;4169155;28;20436;-79
2021/07/17 08:07:45;;;;;;;9.20;4.80;;;17.90;99.90;;;17.30;77.79;102179.59;4169390;28;20068;-79
2021/07/17 08:09:46;;;;;;;8.45;4.57;;;17.90;99.90;;;17.39;75.83;102194.63;4169362;28;20034;-79
2021/07/17 08:11:47;;;;;;;8.82;4.43;;;18.10;99.90;;;17.53;75.76;102185.97;4169031;28;20505;-79
2021/07/17 08:13:48;;;;;;;9.52;4.95;;;18.20;99.90;;;17.48;75.61;102186.47;4168071;28;20113;-79
2021/07/17 08:15:50;;;;;;;8.30;4.40;;;18.30;99.90;;;17.55;75.92;102181.34;4169474;28;20032;-78
2021/07/17 08:17:51;;;;;;;7.50;4.05;;;18.40;99.90;;;17.89;75.32;102184.66;4168060;28;20033;-79
2021/07/17 08:19:52;;;;;;;6.35;3.80;;;18.50;99.90;;;17.77;73.77;102185.97;4168085;28;20021;-79
2021/07/17 08:21:53;;;;;;;11.90;4.30;;;18.60;99.90;;;17.81;73.11;102189.16;4169071;28;20045;-79